This is the latest recevied weather packets stored in our database for station/object LEMD. If no packets are shown the sender has not sent any weather packets the latest 10 day(s).
| Time | Temp. | Humidity | Pressure | Rain* | Wind** | Luminosity | Snow |
|---|---|---|---|---|---|---|---|
| 1777894204 | 17.78° C | 45% | 1013 hPa | - | - | - | - |
| 1777893304 | 17.78° C | 45% | 1013 hPa | - | - | - | - |
| 1777889704 | 15° C | 62% | 1013 hPa | - | - | - | - |
| 1777888805 | 13.89° C | 67% | 1013 hPa | - | - | - | - |
| 1777887005 | 13.89° C | 67% | 1013 hPa | - | - | - | - |
| 1777886104 | 13.89° C | 67% | 1013 hPa | - | - | - | - |
| 1777885204 | 12.78° C | 71% | 1013 hPa | - | - | - | - |
| 1777883405 | 12.78° C | 71% | 1013 hPa | - | - | - | - |
| 1777882504 | 12.78° C | 71% | 1013 hPa | - | - | - | - |
| 1777878903 | 12.22° C | 81% | 1013 hPa | - | - | - | - |
| 1777878004 | 8.89° C | 100% | 1012 hPa | - | - | - | - |
| 1777876204 | 10° C | 87% | 1012 hPa | - | - | - | - |
| 1777874404 | 10° C | 87% | 1012 hPa | - | - | - | - |
| 1777872604 | 10° C | 87% | 1012 hPa | - | - | - | - |
| 1777870804 | 11.11° C | 76% | 1012 hPa | - | - | - | - |
| 1777869003 | 12.78° C | 66% | 1012 hPa | - | - | - | - |
| 1777868104 | 12.78° C | 66% | 1012 hPa | - | - | - | - |
| 1777867204 | 12.78° C | 66% | 1012 hPa | - | - | - | - |
| 1777866304 | 12.78° C | 66% | 1012 hPa | - | - | - | - |
| 1777864504 | 12.78° C | 66% | 1012 hPa | - | - | - | - |
| 1777863605 | 13.89° C | 62% | 1012 hPa | - | - | - | - |
| 1777862704 | 13.89° C | 62% | 1012 hPa | - | - | - | - |
| 1777860904 | 12.78° C | 66% | 1012 hPa | - | - | - | - |
| 1777860004 | 12.78° C | 66% | 1012 hPa | - | - | - | - |
| 1777857304 | 15° C | 58% | 1013 hPa | - | - | - | - |
* Rain since midnight (hover to see other rain measurements)
** Current wind speed in m/s (hover to see current wind gust speed)